sensor_id;sensor_type;location;lat;lon;timestamp;temperature;humidity
14192;DHT22;7177;48.572;7.838;2024-03-25T00:01:59;4.40;99.90
14192;DHT22;7177;48.572;7.838;2024-03-25T00:04:24;4.40;99.90
14192;DHT22;7177;48.572;7.838;2024-03-25T00:06:50;4.40;99.90
14192;DHT22;7177;48.572;7.838;2024-03-25T00:09:16;4.40;99.90
14192;DHT22;7177;48.572;7.838;2024-03-25T00:11:42;4.40;99.90
14192;DHT22;7177;48.572;7.838;2024-03-25T00:14:08;4.40;99.90
14192;DHT22;7177;48.572;7.838;2024-03-25T00:16:34;4.30;99.90
14192;DHT22;7177;48.572;7.838;2024-03-25T00:19:00;4.30;99.90
14192;DHT22;7177;48.572;7.838;2024-03-25T00:21:26;4.30;99.90
14192;DHT22;7177;48.572;7.838;2024-03-25T00:23:52;4.30;99.90
14192;DHT22;7177;48.572;7.838;2024-03-25T00:26:18;4.20;99.90
14192;DHT22;7177;48.572;7.838;2024-03-25T00:28:43;4.20;99.90
14192;DHT22;7177;48.572;7.838;2024-03-25T00:31:09;4.20;99.90
14192;DHT22;7177;48.572;7.838;2024-03-25T00:33:35;4.10;99.90
14192;DHT22;7177;48.572;7.838;2024-03-25T00:36:00;4.10;99.90
14192;DHT22;7177;48.572;7.838;2024-03-25T00:38:26;4.10;99.90
14192;DHT22;7177;48.572;7.838;2024-03-25T00:40:52;4.10;99.90
14192;DHT22;7177;48.572;7.838;2024-03-25T00:43:17;4.10;99.90
14192;DHT22;7177;48.572;7.838;2024-03-25T00:45:43;4.10;99.90
14192;DHT22;7177;48.572;7.838;2024-03-25T00:48:09;4.10;99.90
14192;DHT22;7177;48.572;7.838;2024-03-25T00:50:34;4.00;99.90
14192;DHT22;7177;48.572;7.838;2024-03-25T00:53:00;4.00;99.90
14192;DHT22;7177;48.572;7.838;2024-03-25T00:55:25;3.90;99.90
14192;DHT22;7177;48.572;7.838;2024-03-25T00:57:51;3.90;99.90
14192;DHT22;7177;48.572;7.838;2024-03-25T01:00:17;3.90;99.90
14192;DHT22;7177;48.572;7.838;2024-03-25T01:02:43;3.90;99.90
14192;DHT22;7177;48.572;7.838;2024-03-25T01:05:09;3.90;99.90
14192;DHT22;7177;48.572;7.838;2024-03-25T01:07:35;4.00;99.90
14192;DHT22;7177;48.572;7.838;2024-03-25T01:10:00;4.00;99.90
14192;DHT22;7177;48.572;7.838;2024-03-25T01:12:26;4.00;99.90
14192;DHT22;7177;48.572;7.838;2024-03-25T01:14:52;4.00;99.90
14192;DHT22;7177;48.572;7.838;2024-03-25T01:17:18;4.00;99.90
14192;DHT22;7177;48.572;7.838;2024-03-25T01:19:44;3.90;99.90
14192;DHT22;7177;48.572;7.838;2024-03-25T01:22:09;3.90;99.90
14192;DHT22;7177;48.572;7.838;2024-03-25T01:24:35;3.90;99.90
14192;DHT22;7177;48.572;7.838;2024-03-25T01:27:00;3.90;99.90
14192;DHT22;7177;48.572;7.838;2024-03-25T01:29:26;3.90;99.90
14192;DHT22;7177;48.572;7.838;2024-03-25T01:31:52;3.90;99.90
14192;DHT22;7177;48.572;7.838;2024-03-25T01:34:18;3.90;99.90
14192;DHT22;7177;48.572;7.838;2024-03-25T01:36:43;3.90;99.90
14192;DHT22;7177;48.572;7.838;2024-03-25T01:39:09;3.90;99.90
14192;DHT22;7177;48.572;7.838;2024-03-25T01:41:35;3.90;99.90
14192;DHT22;7177;48.572;7.838;2024-03-25T01:44:01;4.00;99.90
14192;DHT22;7177;48.572;7.838;2024-03-25T01:46:27;3.90;99.90
14192;DHT22;7177;48.572;7.838;2024-03-25T01:48:53;3.90;99.90
14192;DHT22;7177;48.572;7.838;2024-03-25T01:51:20;3.90;99.90
14192;DHT22;7177;48.572;7.838;2024-03-25T01:53:48;3.90;99.90
14192;DHT22;7177;48.572;7.838;2024-03-25T01:56:14;3.90;99.90
14192;DHT22;7177;48.572;7.838;2024-03-25T01:58:40;4.00;99.90
14192;DHT22;7177;48.572;7.838;2024-03-25T02:01:06;4.00;99.90
14192;DHT22;7177;48.572;7.838;2024-03-25T02:03:35;4.00;99.90
14192;DHT22;7177;48.572;7.838;2024-03-25T02:06:06;3.90;99.90
14192;DHT22;7177;48.572;7.838;2024-03-25T02:08:34;3.90;99.90
14192;DHT22;7177;48.572;7.838;2024-03-25T02:11:00;3.90;99.90
14192;DHT22;7177;48.572;7.838;2024-03-25T02:13:26;3.90;99.90
14192;DHT22;7177;48.572;7.838;2024-03-25T02:15:52;3.90;99.90
14192;DHT22;7177;48.572;7.838;2024-03-25T02:18:18;3.90;99.90
14192;DHT22;7177;48.572;7.838;2024-03-25T02:20:44;3.80;99.90
14192;DHT22;7177;48.572;7.838;2024-03-25T02:23:11;3.90;99.90
14192;DHT22;7177;48.572;7.838;2024-03-25T02:25:38;3.80;99.90
14192;DHT22;7177;48.572;7.838;2024-03-25T02:28:04;3.80;99.90
14192;DHT22;7177;48.572;7.838;2024-03-25T02:30:30;3.80;99.90
14192;DHT22;7177;48.572;7.838;2024-03-25T02:32:55;3.80;99.90
14192;DHT22;7177;48.572;7.838;2024-03-25T02:35:22;3.80;99.90
14192;DHT22;7177;48.572;7.838;2024-03-25T02:37:50;3.80;99.90
14192;DHT22;7177;48.572;7.838;2024-03-25T02:40:16;3.80;99.90
14192;DHT22;7177;48.572;7.838;2024-03-25T02:42:43;3.80;99.90
14192;DHT22;7177;48.572;7.838;2024-03-25T02:45:09;3.70;99.90
14192;DHT22;7177;48.572;7.838;2024-03-25T02:47:34;3.70;99.90
14192;DHT22;7177;48.572;7.838;2024-03-25T02:50:00;3.70;99.90
14192;DHT22;7177;48.572;7.838;2024-03-25T02:52:25;3.60;99.90
14192;DHT22;7177;48.572;7.838;2024-03-25T02:54:51;3.60;99.90
14192;DHT22;7177;48.572;7.838;2024-03-25T02:57:16;3.60;99.90
14192;DHT22;7177;48.572;7.838;2024-03-25T02:59:42;3.50;99.90
14192;DHT22;7177;48.572;7.838;2024-03-25T03:02:07;3.50;99.90
14192;DHT22;7177;48.572;7.838;2024-03-25T03:04:33;3.50;99.90
14192;DHT22;7177;48.572;7.838;2024-03-25T03:06:58;3.60;99.90
14192;DHT22;7177;48.572;7.838;2024-03-25T03:09:24;3.60;99.90
14192;DHT22;7177;48.572;7.838;2024-03-25T03:11:49;6.00;99.90
14192;DHT22;7177;48.572;7.838;2024-03-25T03:14:16;3.60;99.90
14192;DHT22;7177;48.572;7.838;2024-03-25T03:16:42;3.60;99.90
14192;DHT22;7177;48.572;7.838;2024-03-25T03:19:07;3.60;99.90
14192;DHT22;7177;48.572;7.838;2024-03-25T03:21:33;3.60;99.90
14192;DHT22;7177;48.572;7.838;2024-03-25T03:23:59;3.60;99.90
14192;DHT22;7177;48.572;7.838;2024-03-25T03:26:24;3.60;99.90
14192;DHT22;7177;48.572;7.838;2024-03-25T03:28:53;3.60;99.90
14192;DHT22;7177;48.572;7.838;2024-03-25T03:31:19;3.60;99.90
14192;DHT22;7177;48.572;7.838;2024-03-25T03:33:47;3.60;99.90
14192;DHT22;7177;48.572;7.838;2024-03-25T03:36:13;3.60;99.90
14192;DHT22;7177;48.572;7.838;2024-03-25T03:38:39;3.60;99.90
14192;DHT22;7177;48.572;7.838;2024-03-25T03:41:04;3.70;99.90
14192;DHT22;7177;48.572;7.838;2024-03-25T03:43:30;3.70;99.90
14192;DHT22;7177;48.572;7.838;2024-03-25T03:45:55;3.70;99.90
14192;DHT22;7177;48.572;7.838;2024-03-25T03:48:21;3.70;99.90
14192;DHT22;7177;48.572;7.838;2024-03-25T03:50:46;3.70;99.90
14192;DHT22;7177;48.572;7.838;2024-03-25T03:53:12;3.70;99.90
14192;DHT22;7177;48.572;7.838;2024-03-25T03:55:38;3.70;99.90
14192;DHT22;7177;48.572;7.838;2024-03-25T03:58:04;3.70;99.90
14192;DHT22;7177;48.572;7.838;2024-03-25T04:00:33;3.70;99.90
14192;DHT22;7177;48.572;7.838;2024-03-25T04:02:59;3.70;99.90
14192;DHT22;7177;48.572;7.838;2024-03-25T04:05:27;3.70;99.90
14192;DHT22;7177;48.572;7.838;2024-03-25T04:07:53;3.80;99.90
14192;DHT22;7177;48.572;7.838;2024-03-25T04:10:18;3.80;99.90
14192;DHT22;7177;48.572;7.838;2024-03-25T04:12:44;3.80;99.90
14192;DHT22;7177;48.572;7.838;2024-03-25T04:15:09;3.80;99.90
14192;DHT22;7177;48.572;7.838;2024-03-25T04:17:40;3.80;99.90
14192;DHT22;7177;48.572;7.838;2024-03-25T04:20:06;3.80;99.90
14192;DHT22;7177;48.572;7.838;2024-03-25T04:22:36;3.80;99.90
14192;DHT22;7177;48.572;7.838;2024-03-25T04:25:01;3.80;99.90
14192;DHT22;7177;48.572;7.838;2024-03-25T04:27:27;3.80;99.90
14192;DHT22;7177;48.572;7.838;2024-03-25T04:29:53;3.80;99.90
14192;DHT22;7177;48.572;7.838;2024-03-25T04:32:18;3.80;99.90
14192;DHT22;7177;48.572;7.838;2024-03-25T04:34:44;3.80;99.90
14192;DHT22;7177;48.572;7.838;2024-03-25T04:37:10;3.80;99.90
14192;DHT22;7177;48.572;7.838;2024-03-25T04:39:35;3.80;99.90
14192;DHT22;7177;48.572;7.838;2024-03-25T04:42:01;3.80;99.90
14192;DHT22;7177;48.572;7.838;2024-03-25T04:44:27;3.80;99.90
14192;DHT22;7177;48.572;7.838;2024-03-25T04:46:53;3.80;99.90
14192;DHT22;7177;48.572;7.838;2024-03-25T04:49:18;3.80;99.90
14192;DHT22;7177;48.572;7.838;2024-03-25T04:51:44;2.30;99.90
14192;DHT22;7177;48.572;7.838;2024-03-25T04:54:09;3.80;99.90
14192;DHT22;7177;48.572;7.838;2024-03-25T04:56:35;3.80;99.90
14192;DHT22;7177;48.572;7.838;2024-03-25T04:59:00;3.80;99.90
14192;DHT22;7177;48.572;7.838;2024-03-25T05:01:29;3.80;99.90
14192;DHT22;7177;48.572;7.838;2024-03-25T05:03:55;3.80;99.90
14192;DHT22;7177;48.572;7.838;2024-03-25T05:06:20;3.80;99.90
14192;DHT22;7177;48.572;7.838;2024-03-25T05:08:46;3.80;99.90
14192;DHT22;7177;48.572;7.838;2024-03-25T05:11:11;3.80;99.90
14192;DHT22;7177;48.572;7.838;2024-03-25T05:13:37;3.80;99.90
14192;DHT22;7177;48.572;7.838;2024-03-25T05:16:03;3.80;99.90
14192;DHT22;7177;48.572;7.838;2024-03-25T05:18:29;3.80;99.90
14192;DHT22;7177;48.572;7.838;2024-03-25T05:20:54;3.80;99.90
14192;DHT22;7177;48.572;7.838;2024-03-25T05:23:20;3.80;99.90
14192;DHT22;7177;48.572;7.838;2024-03-25T05:25:45;3.80;99.90
14192;DHT22;7177;48.572;7.838;2024-03-25T05:28:11;3.70;99.90
14192;DHT22;7177;48.572;7.838;2024-03-25T05:30:38;3.80;99.90
14192;DHT22;7177;48.572;7.838;2024-03-25T05:33:04;3.70;99.90
14192;DHT22;7177;48.572;7.838;2024-03-25T05:35:30;3.70;99.90
14192;DHT22;7177;48.572;7.838;2024-03-25T05:37:58;3.80;99.90
14192;DHT22;7177;48.572;7.838;2024-03-25T05:40:24;3.80;99.90
14192;DHT22;7177;48.572;7.838;2024-03-25T05:42:49;4.00;99.90
14192;DHT22;7177;48.572;7.838;2024-03-25T05:45:15;4.10;99.90
14192;DHT22;7177;48.572;7.838;2024-03-25T05:47:41;4.30;99.90
14192;DHT22;7177;48.572;7.838;2024-03-25T05:50:07;4.20;99.90
14192;DHT22;7177;48.572;7.838;2024-03-25T05:52:33;4.10;99.90
14192;DHT22;7177;48.572;7.838;2024-03-25T05:54:59;4.10;99.90
14192;DHT22;7177;48.572;7.838;2024-03-25T05:57:24;4.00;99.90
14192;DHT22;7177;48.572;7.838;2024-03-25T05:59:50;4.10;99.90
14192;DHT22;7177;48.572;7.838;2024-03-25T06:02:15;4.10;99.90
14192;DHT22;7177;48.572;7.838;2024-03-25T06:04:41;4.00;99.90
14192;DHT22;7177;48.572;7.838;2024-03-25T06:07:06;4.10;99.90
14192;DHT22;7177;48.572;7.838;2024-03-25T06:09:32;4.10;99.90
14192;DHT22;7177;48.572;7.838;2024-03-25T06:11:57;4.20;99.90
14192;DHT22;7177;48.572;7.838;2024-03-25T06:14:23;4.20;99.90
14192;DHT22;7177;48.572;7.838;2024-03-25T06:16:49;4.20;99.90
14192;DHT22;7177;48.572;7.838;2024-03-25T06:19:14;4.20;99.90
14192;DHT22;7177;48.572;7.838;2024-03-25T06:21:40;4.30;99.90
14192;DHT22;7177;48.572;7.838;2024-03-25T06:24:08;4.30;99.90
14192;DHT22;7177;48.572;7.838;2024-03-25T06:26:33;4.30;99.90
14192;DHT22;7177;48.572;7.838;2024-03-25T06:29:00;4.30;99.90
14192;DHT22;7177;48.572;7.838;2024-03-25T06:31:25;4.40;99.90
14192;DHT22;7177;48.572;7.838;2024-03-25T06:34:09;4.40;99.90
14192;DHT22;7177;48.572;7.838;2024-03-25T06:36:50;4.40;99.90
14192;DHT22;7177;48.572;7.838;2024-03-25T06:39:15;4.40;99.90
14192;DHT22;7177;48.572;7.838;2024-03-25T06:41:41;4.50;99.90
14192;DHT22;7177;48.572;7.838;2024-03-25T06:44:07;4.50;99.90
14192;DHT22;7177;48.572;7.838;2024-03-25T06:46:33;4.60;99.90
14192;DHT22;7177;48.572;7.838;2024-03-25T06:48:59;4.70;99.90
14192;DHT22;7177;48.572;7.838;2024-03-25T06:51:25;4.70;99.90
14192;DHT22;7177;48.572;7.838;2024-03-25T06:53:50;4.80;99.90
14192;DHT22;7177;48.572;7.838;2024-03-25T06:56:16;4.80;99.90
14192;DHT22;7177;48.572;7.838;2024-03-25T06:58:42;4.90;99.90
14192;DHT22;7177;48.572;7.838;2024-03-25T07:01:09;5.00;99.90
14192;DHT22;7177;48.572;7.838;2024-03-25T07:03:35;5.20;99.90
14192;DHT22;7177;48.572;7.838;2024-03-25T07:06:01;5.30;99.90
14192;DHT22;7177;48.572;7.838;2024-03-25T07:08:27;5.50;99.90
14192;DHT22;7177;48.572;7.838;2024-03-25T07:10:54;5.70;99.90
14192;DHT22;7177;48.572;7.838;2024-03-25T07:13:20;6.10;99.90
14192;DHT22;7177;48.572;7.838;2024-03-25T07:15:46;6.60;99.90
14192;DHT22;7177;48.572;7.838;2024-03-25T07:18:12;7.00;99.90
14192;DHT22;7177;48.572;7.838;2024-03-25T07:20:39;7.40;99.90
14192;DHT22;7177;48.572;7.838;2024-03-25T07:23:05;7.70;99.90
14192;DHT22;7177;48.572;7.838;2024-03-25T07:25:31;7.90;99.90
14192;DHT22;7177;48.572;7.838;2024-03-25T07:27:57;8.00;99.90
14192;DHT22;7177;48.572;7.838;2024-03-25T07:30:22;8.10;99.90
14192;DHT22;7177;48.572;7.838;2024-03-25T07:32:56;8.10;99.90
14192;DHT22;7177;48.572;7.838;2024-03-25T07:35:22;8.00;99.90
14192;DHT22;7177;48.572;7.838;2024-03-25T07:37:48;8.10;99.90
14192;DHT22;7177;48.572;7.838;2024-03-25T07:40:20;8.30;99.90
14192;DHT22;7177;48.572;7.838;2024-03-25T07:42:46;8.50;99.90
14192;DHT22;7177;48.572;7.838;2024-03-25T07:45:12;8.70;99.90
14192;DHT22;7177;48.572;7.838;2024-03-25T07:47:37;9.00;99.90
14192;DHT22;7177;48.572;7.838;2024-03-25T07:50:03;9.20;99.90
14192;DHT22;7177;48.572;7.838;2024-03-25T07:52:29;9.30;99.90
14192;DHT22;7177;48.572;7.838;2024-03-25T07:54:55;9.50;99.90
14192;DHT22;7177;48.572;7.838;2024-03-25T07:57:21;9.50;99.90
14192;DHT22;7177;48.572;7.838;2024-03-25T07:59:47;9.50;99.90
14192;DHT22;7177;48.572;7.838;2024-03-25T08:02:12;9.80;99.90
14192;DHT22;7177;48.572;7.838;2024-03-25T08:04:38;9.90;99.90
14192;DHT22;7177;48.572;7.838;2024-03-25T08:07:03;10.10;99.90
14192;DHT22;7177;48.572;7.838;2024-03-25T08:09:29;10.20;99.90
14192;DHT22;7177;48.572;7.838;2024-03-25T08:11:55;10.40;99.90
14192;DHT22;7177;48.572;7.838;2024-03-25T08:14:20;10.60;99.90
14192;DHT22;7177;48.572;7.838;2024-03-25T08:16:46;10.90;99.90
14192;DHT22;7177;48.572;7.838;2024-03-25T08:19:12;11.00;99.90
14192;DHT22;7177;48.572;7.838;2024-03-25T08:21:37;11.30;99.90
14192;DHT22;7177;48.572;7.838;2024-03-25T08:24:03;11.80;99.90
14192;DHT22;7177;48.572;7.838;2024-03-25T08:26:29;12.00;99.90
14192;DHT22;7177;48.572;7.838;2024-03-25T08:28:55;12.10;99.90
14192;DHT22;7177;48.572;7.838;2024-03-25T08:31:20;12.40;99.90
14192;DHT22;7177;48.572;7.838;2024-03-25T08:33:46;12.70;99.90
14192;DHT22;7177;48.572;7.838;2024-03-25T08:36:11;12.50;99.90
14192;DHT22;7177;48.572;7.838;2024-03-25T08:38:37;12.50;99.90
14192;DHT22;7177;48.572;7.838;2024-03-25T08:41:03;12.60;99.90
14192;DHT22;7177;48.572;7.838;2024-03-25T08:43:29;12.30;99.90
14192;DHT22;7177;48.572;7.838;2024-03-25T08:45:54;12.40;99.90
14192;DHT22;7177;48.572;7.838;2024-03-25T08:48:20;12.60;99.90
14192;DHT22;7177;48.572;7.838;2024-03-25T08:50:46;12.90;99.90
14192;DHT22;7177;48.572;7.838;2024-03-25T08:53:11;13.20;99.90
14192;DHT22;7177;48.572;7.838;2024-03-25T08:55:36;13.60;99.90
14192;DHT22;7177;48.572;7.838;2024-03-25T08:58:02;13.80;99.90
14192;DHT22;7177;48.572;7.838;2024-03-25T09:00:28;13.80;99.90
14192;DHT22;7177;48.572;7.838;2024-03-25T09:02:54;13.90;99.90
14192;DHT22;7177;48.572;7.838;2024-03-25T09:05:20;14.00;99.90
14192;DHT22;7177;48.572;7.838;2024-03-25T09:07:49;14.40;99.90
14192;DHT22;7177;48.572;7.838;2024-03-25T09:10:17;15.20;99.90
14192;DHT22;7177;48.572;7.838;2024-03-25T09:13:01;15.90;99.90
14192;DHT22;7177;48.572;7.838;2024-03-25T09:15:26;16.10;99.90
14192;DHT22;7177;48.572;7.838;2024-03-25T09:17:52;16.20;99.90
14192;DHT22;7177;48.572;7.838;2024-03-25T09:20:17;16.50;99.40
14192;DHT22;7177;48.572;7.838;2024-03-25T09:22:43;16.20;99.80
14192;DHT22;7177;48.572;7.838;2024-03-25T09:25:09;15.80;99.00
14192;DHT22;7177;48.572;7.838;2024-03-25T09:27:35;16.00;99.30
14192;DHT22;7177;48.572;7.838;2024-03-25T09:30:01;16.40;98.50
14192;DHT22;7177;48.572;7.838;2024-03-25T09:32:26;16.90;97.00
14192;DHT22;7177;48.572;7.838;2024-03-25T09:34:52;17.20;96.20
14192;DHT22;7177;48.572;7.838;2024-03-25T09:37:18;17.80;95.20
14192;DHT22;7177;48.572;7.838;2024-03-25T09:39:43;17.40;94.00
14192;DHT22;7177;48.572;7.838;2024-03-25T09:42:14;17.00;93.10
14192;DHT22;7177;48.572;7.838;2024-03-25T09:44:39;16.80;93.30
14192;DHT22;7177;48.572;7.838;2024-03-25T09:47:05;16.80;93.70
14192;DHT22;7177;48.572;7.838;2024-03-25T09:49:32;17.30;92.10
14192;DHT22;7177;48.572;7.838;2024-03-25T09:51:59;17.70;93.10
14192;DHT22;7177;48.572;7.838;2024-03-25T09:54:25;18.20;92.20
14192;DHT22;7177;48.572;7.838;2024-03-25T09:56:50;18.10;90.20
14192;DHT22;7177;48.572;7.838;2024-03-25T09:59:17;18.00;85.60
14192;DHT22;7177;48.572;7.838;2024-03-25T10:01:43;18.30;85.50
14192;DHT22;7177;48.572;7.838;2024-03-25T10:04:09;19.00;83.20
14192;DHT22;7177;48.572;7.838;2024-03-25T10:06:35;19.00;78.20
14192;DHT22;7177;48.572;7.838;2024-03-25T10:09:04;18.80;76.90
14192;DHT22;7177;48.572;7.838;2024-03-25T10:11:31;19.20;76.10
14192;DHT22;7177;48.572;7.838;2024-03-25T10:14:03;19.40;78.10
14192;DHT22;7177;48.572;7.838;2024-03-25T10:16:28;19.50;79.50
14192;DHT22;7177;48.572;7.838;2024-03-25T10:18:54;20.10;75.40
14192;DHT22;7177;48.572;7.838;2024-03-25T10:21:20;20.20;75.60
14192;DHT22;7177;48.572;7.838;2024-03-25T10:23:47;19.70;70.90
14192;DHT22;7177;48.572;7.838;2024-03-25T10:26:30;19.00;72.30
14192;DHT22;7177;48.572;7.838;2024-03-25T10:29:07;18.30;70.20
14192;DHT22;7177;48.572;7.838;2024-03-25T10:31:33;17.60;66.70
14192;DHT22;7177;48.572;7.838;2024-03-25T10:33:59;17.90;69.20
14192;DHT22;7177;48.572;7.838;2024-03-25T10:36:25;18.70;71.40
14192;DHT22;7177;48.572;7.838;2024-03-25T10:39:01;19.40;71.10
14192;DHT22;7177;48.572;7.838;2024-03-25T10:41:28;19.70;66.70
14192;DHT22;7177;48.572;7.838;2024-03-25T10:43:55;19.00;65.30
14192;DHT22;7177;48.572;7.838;2024-03-25T10:46:22;18.10;65.60
14192;DHT22;7177;48.572;7.838;2024-03-25T10:48:54;17.80;67.50
14192;DHT22;7177;48.572;7.838;2024-03-25T10:51:21;18.00;68.70
14192;DHT22;7177;48.572;7.838;2024-03-25T10:53:51;18.50;65.50
14192;DHT22;7177;48.572;7.838;2024-03-25T10:56:21;18.80;65.00
14192;DHT22;7177;48.572;7.838;2024-03-25T10:58:50;19.10;67.80
14192;DHT22;7177;48.572;7.838;2024-03-25T11:01:18;19.30;66.20
14192;DHT22;7177;48.572;7.838;2024-03-25T11:03:47;19.70;64.30
14192;DHT22;7177;48.572;7.838;2024-03-25T11:06:14;19.40;62.90
14192;DHT22;7177;48.572;7.838;2024-03-25T11:08:40;19.30;67.00
14192;DHT22;7177;48.572;7.838;2024-03-25T11:11:07;19.70;63.10
14192;DHT22;7177;48.572;7.838;2024-03-25T11:13:33;20.50;62.10
14192;DHT22;7177;48.572;7.838;2024-03-25T11:15:59;21.10;60.00
14192;DHT22;7177;48.572;7.838;2024-03-25T11:18:26;21.10;59.40
14192;DHT22;7177;48.572;7.838;2024-03-25T11:21:04;21.30;59.80
14192;DHT22;7177;48.572;7.838;2024-03-25T11:23:43;20.70;59.20
14192;DHT22;7177;48.572;7.838;2024-03-25T11:26:25;20.00;60.60
14192;DHT22;7177;48.572;7.838;2024-03-25T11:28:55;19.20;63.30
14192;DHT22;7177;48.572;7.838;2024-03-25T11:31:22;19.00;65.70
14192;DHT22;7177;48.572;7.838;2024-03-25T11:33:50;18.50;64.50
14192;DHT22;7177;48.572;7.838;2024-03-25T11:36:16;18.70;63.80
14192;DHT22;7177;48.572;7.838;2024-03-25T11:38:43;18.70;61.00
14192;DHT22;7177;48.572;7.838;2024-03-25T11:41:10;18.00;60.90
14192;DHT22;7177;48.572;7.838;2024-03-25T11:43:36;17.30;64.30
14192;DHT22;7177;48.572;7.838;2024-03-25T11:46:02;17.20;65.50
14192;DHT22;7177;48.572;7.838;2024-03-25T11:48:29;17.40;65.00
14192;DHT22;7177;48.572;7.838;2024-03-25T11:50:55;17.00;67.10
14192;DHT22;7177;48.572;7.838;2024-03-25T11:53:20;17.30;64.30
14192;DHT22;7177;48.572;7.838;2024-03-25T11:55:46;17.50;63.00
14192;DHT22;7177;48.572;7.838;2024-03-25T11:58:12;17.90;65.40
14192;DHT22;7177;48.572;7.838;2024-03-25T12:00:47;18.60;62.40
14192;DHT22;7177;48.572;7.838;2024-03-25T12:03:15;19.30;61.40
14192;DHT22;7177;48.572;7.838;2024-03-25T12:05:44;20.10;63.90
14192;DHT22;7177;48.572;7.838;2024-03-25T12:08:10;20.60;60.70
14192;DHT22;7177;48.572;7.838;2024-03-25T12:10:37;20.90;60.80
14192;DHT22;7177;48.572;7.838;2024-03-25T12:13:21;21.20;59.90
14192;DHT22;7177;48.572;7.838;2024-03-25T12:15:48;21.30;57.70
14192;DHT22;7177;48.572;7.838;2024-03-25T12:18:14;21.40;59.20
14192;DHT22;7177;48.572;7.838;2024-03-25T12:20:40;22.00;56.40
14192;DHT22;7177;48.572;7.838;2024-03-25T12:23:05;22.10;54.80
14192;DHT22;7177;48.572;7.838;2024-03-25T12:25:31;21.00;53.70
14192;DHT22;7177;48.572;7.838;2024-03-25T12:27:56;20.30;55.40
14192;DHT22;7177;48.572;7.838;2024-03-25T12:30:22;20.30;56.60
14192;DHT22;7177;48.572;7.838;2024-03-25T12:32:48;20.20;56.30
14192;DHT22;7177;48.572;7.838;2024-03-25T12:35:15;20.50;58.10
14192;DHT22;7177;48.572;7.838;2024-03-25T12:37:47;20.30;56.80
14192;DHT22;7177;48.572;7.838;2024-03-25T12:40:25;20.60;56.00
14192;DHT22;7177;48.572;7.838;2024-03-25T12:42:54;20.70;58.40
14192;DHT22;7177;48.572;7.838;2024-03-25T12:45:20;20.80;54.80
14192;DHT22;7177;48.572;7.838;2024-03-25T12:47:46;21.00;54.30
14192;DHT22;7177;48.572;7.838;2024-03-25T12:50:12;20.80;55.70
14192;DHT22;7177;48.572;7.838;2024-03-25T12:52:37;21.00;53.60
14192;DHT22;7177;48.572;7.838;2024-03-25T12:55:03;21.10;55.50
14192;DHT22;7177;48.572;7.838;2024-03-25T12:57:29;21.20;53.90
14192;DHT22;7177;48.572;7.838;2024-03-25T12:59:55;21.40;55.50
14192;DHT22;7177;48.572;7.838;2024-03-25T13:02:20;21.40;56.30
14192;DHT22;7177;48.572;7.838;2024-03-25T13:04:46;21.00;58.40
14192;DHT22;7177;48.572;7.838;2024-03-25T13:07:11;21.40;57.40
14192;DHT22;7177;48.572;7.838;2024-03-25T13:09:37;21.60;55.40
14192;DHT22;7177;48.572;7.838;2024-03-25T13:12:03;21.50;51.20
14192;DHT22;7177;48.572;7.838;2024-03-25T13:14:29;21.40;51.70
14192;DHT22;7177;48.572;7.838;2024-03-25T13:16:55;21.30;55.50
14192;DHT22;7177;48.572;7.838;2024-03-25T13:19:20;21.00;54.40
14192;DHT22;7177;48.572;7.838;2024-03-25T13:21:46;21.10;51.00
14192;DHT22;7177;48.572;7.838;2024-03-25T13:24:13;21.40;52.40
14192;DHT22;7177;48.572;7.838;2024-03-25T13:26:39;21.60;53.90
14192;DHT22;7177;48.572;7.838;2024-03-25T13:29:04;21.60;52.40
14192;DHT22;7177;48.572;7.838;2024-03-25T13:31:30;21.80;51.10
14192;DHT22;7177;48.572;7.838;2024-03-25T13:33:56;22.10;51.10
14192;DHT22;7177;48.572;7.838;2024-03-25T13:36:21;21.70;47.40
14192;DHT22;7177;48.572;7.838;2024-03-25T13:38:47;21.40;49.80
14192;DHT22;7177;48.572;7.838;2024-03-25T13:41:12;20.80;49.60
14192;DHT22;7177;48.572;7.838;2024-03-25T13:43:44;20.20;50.90
14192;DHT22;7177;48.572;7.838;2024-03-25T13:46:09;20.20;51.50
14192;DHT22;7177;48.572;7.838;2024-03-25T13:48:37;20.30;50.70
14192;DHT22;7177;48.572;7.838;2024-03-25T13:51:03;20.70;51.40
14192;DHT22;7177;48.572;7.838;2024-03-25T13:53:29;20.60;51.40
14192;DHT22;7177;48.572;7.838;2024-03-25T13:55:54;20.50;47.50
14192;DHT22;7177;48.572;7.838;2024-03-25T13:58:20;20.10;48.00
14192;DHT22;7177;48.572;7.838;2024-03-25T14:00:45;19.80;49.30
14192;DHT22;7177;48.572;7.838;2024-03-25T14:03:11;19.50;50.10
14192;DHT22;7177;48.572;7.838;2024-03-25T14:05:37;19.30;49.90
14192;DHT22;7177;48.572;7.838;2024-03-25T14:08:02;19.40;52.00
14192;DHT22;7177;48.572;7.838;2024-03-25T14:10:28;19.80;48.80
14192;DHT22;7177;48.572;7.838;2024-03-25T14:12:55;19.70;49.10
14192;DHT22;7177;48.572;7.838;2024-03-25T14:15:21;20.00;50.70
14192;DHT22;7177;48.572;7.838;2024-03-25T14:17:46;20.10;46.70
14192;DHT22;7177;48.572;7.838;2024-03-25T14:20:12;19.70;47.40
14192;DHT22;7177;48.572;7.838;2024-03-25T14:22:37;19.50;46.70
14192;DHT22;7177;48.572;7.838;2024-03-25T14:25:03;19.50;48.30
14192;DHT22;7177;48.572;7.838;2024-03-25T14:27:29;19.50;48.20
14192;DHT22;7177;48.572;7.838;2024-03-25T14:29:54;19.70;49.50
14192;DHT22;7177;48.572;7.838;2024-03-25T14:32:21;20.20;49.00
14192;DHT22;7177;48.572;7.838;2024-03-25T14:34:47;20.60;47.10
14192;DHT22;7177;48.572;7.838;2024-03-25T14:37:13;20.60;47.70
14192;DHT22;7177;48.572;7.838;2024-03-25T14:39:39;19.90;50.90
14192;DHT22;7177;48.572;7.838;2024-03-25T14:42:05;19.80;51.40
14192;DHT22;7177;48.572;7.838;2024-03-25T14:44:30;19.70;50.20
14192;DHT22;7177;48.572;7.838;2024-03-25T14:46:56;19.60;49.40
14192;DHT22;7177;48.572;7.838;2024-03-25T14:49:24;19.50;51.70
14192;DHT22;7177;48.572;7.838;2024-03-25T14:51:49;19.50;49.90
14192;DHT22;7177;48.572;7.838;2024-03-25T14:54:15;19.90;49.50
14192;DHT22;7177;48.572;7.838;2024-03-25T14:56:40;20.10;51.20
14192;DHT22;7177;48.572;7.838;2024-03-25T14:59:06;20.10;49.00
14192;DHT22;7177;48.572;7.838;2024-03-25T15:01:31;19.80;49.80
14192;DHT22;7177;48.572;7.838;2024-03-25T15:04:01;19.70;49.10
14192;DHT22;7177;48.572;7.838;2024-03-25T15:06:26;19.50;50.00
14192;DHT22;7177;48.572;7.838;2024-03-25T15:08:52;19.50;49.90
14192;DHT22;7177;48.572;7.838;2024-03-25T15:11:17;19.30;49.80
14192;DHT22;7177;48.572;7.838;2024-03-25T15:13:43;19.50;52.00
14192;DHT22;7177;48.572;7.838;2024-03-25T15:16:08;19.50;49.00
14192;DHT22;7177;48.572;7.838;2024-03-25T15:18:34;19.40;50.70
14192;DHT22;7177;48.572;7.838;2024-03-25T15:21:03;19.30;51.30
14192;DHT22;7177;48.572;7.838;2024-03-25T15:23:29;19.50;49.40
14192;DHT22;7177;48.572;7.838;2024-03-25T15:25:56;19.60;49.80
14192;DHT22;7177;48.572;7.838;2024-03-25T15:28:22;19.80;47.80
14192;DHT22;7177;48.572;7.838;2024-03-25T15:30:47;19.90;48.10
14192;DHT22;7177;48.572;7.838;2024-03-25T15:33:14;19.80;47.00
14192;DHT22;7177;48.572;7.838;2024-03-25T15:35:39;19.40;47.90
14192;DHT22;7177;48.572;7.838;2024-03-25T15:38:05;19.30;47.70
14192;DHT22;7177;48.572;7.838;2024-03-25T15:40:31;19.30;48.30
14192;DHT22;7177;48.572;7.838;2024-03-25T15:42:57;19.30;49.50
14192;DHT22;7177;48.572;7.838;2024-03-25T15:45:22;19.20;48.60
14192;DHT22;7177;48.572;7.838;2024-03-25T15:47:50;19.20;48.10
14192;DHT22;7177;48.572;7.838;2024-03-25T15:50:16;19.20;49.00